Waverly, Virginia
Current Conditions -  °F | °C
As of 6:54 AM on Saturday 20 Dec 2014 (Local Time) from KAKQ Reporting Station
Clear Clear  
Wind Chill: 26°   Ceiling: Unl
Heat Index: 31°   Visibility: 10mi
Dew Point: 24°   Wind: 5mph
Humidity: 76%   Direction: 20°NNE
Pressure: 30.29"   Gusts: NA
Location:  37.03°N, 77.1°W
Report Text: KAKQ 201154Z AUTO 02004KT 10SM CLR M01/M04 A3029 RMK AO2 SLP261 T10061044 10000 21022 53008 TSNO
Loading
Personal Weather Stations






























Interactive Weather Map New forecast layout! Learn more

10-Day Weather Forecast

Advertisements
Track Severe Weather on mobile